TimeEDT,TemperatureF,Dew PointF,Humidity,Sea Level PressureIn,VisibilityMPH,Wind Direction,Wind SpeedMPH,Gust SpeedMPH,PrecipitationIn,Events,Conditions,WindDirDegrees,DateUTC
12:15 AM,71.6,62.6,73,29.88,10.0,Calm,Calm,-,N/A,,Clear,0,2013-06-12 04:15:00
12:35 AM,71.6,62.6,73,29.88,10.0,Calm,Calm,-,N/A,,Clear,0,2013-06-12 04:35:00
12:55 AM,69.8,62.6,78,29.88,10.0,Calm,Calm,-,N/A,,Clear,0,2013-06-12 04:55:00
1:15 AM,69.8,62.6,78,29.89,10.0,Calm,Calm,-,N/A,,Clear,0,2013-06-12 05:15:00
1:35 AM,68.0,62.6,83,29.89,10.0,Calm,Calm,-,N/A,,Clear,0,2013-06-12 05:35:00
1:55 AM,66.2,62.6,88,29.88,10.0,Calm,Calm,-,N/A,,Clear,0,2013-06-12 05:55:00
2:15 AM,64.4,62.6,94,29.88,10.0,Calm,Calm,-,N/A,,Clear,0,2013-06-12 06:15:00
2:35 AM,64.4,62.6,94,29.87,7.0,Calm,Calm,-,N/A,,Clear,0,2013-06-12 06:35:00
2:55 AM,64.4,62.6,94,29.88,7.0,Calm,Calm,-,N/A,,Clear,0,2013-06-12 06:55:00
3:15 AM,64.4,60.8,88,29.88,7.0,Calm,Calm,-,N/A,,Clear,0,2013-06-12 07:15:00
3:35 AM,64.4,60.8,88,29.87,4.0,Calm,Calm,-,N/A,,Scattered Clouds,0,2013-06-12 07:35:00
3:55 AM,64.4,60.8,88,29.87,2.5,Calm,Calm,-,N/A,,Clear,0,2013-06-12 07:55:00
4:15 AM,62.6,60.8,94,29.88,4.0,Calm,Calm,-,N/A,,Clear,0,2013-06-12 08:15:00
4:35 AM,62.6,60.8,94,29.89,3.0,Calm,Calm,-,N/A,,Scattered Clouds,0,2013-06-12 08:35:00
4:55 AM,62.6,60.8,94,29.89,4.0,Calm,Calm,-,N/A,,Clear,0,2013-06-12 08:55:00
5:15 AM,62.6,60.8,94,29.90,5.0,Calm,Calm,-,N/A,,Clear,0,2013-06-12 09:15:00
5:35 AM,62.6,60.8,94,29.91,4.0,Calm,Calm,-,N/A,,Clear,0,2013-06-12 09:35:00
5:55 AM,64.4,60.8,88,29.90,4.0,Calm,Calm,-,N/A,,Clear,0,2013-06-12 09:55:00
6:15 AM,62.6,60.8,94,29.90,2.0,Calm,Calm,-,N/A,,Clear,0,2013-06-12 10:15:00
6:35 AM,62.6,60.8,94,29.90,1.8,Calm,Calm,-,N/A,,Mist,0,2013-06-12 10:35:00
6:55 AM,64.4,60.8,88,29.90,2.0,Calm,Calm,-,N/A,,Clear,0,2013-06-12 10:55:00
7:15 AM,64.4,62.6,94,29.90,2.0,Calm,Calm,-,N/A,,Clear,0,2013-06-12 11:15:00
7:35 AM,68.0,64.4,88,29.92,4.0,Calm,Calm,-,N/A,,Clear,0,2013-06-12 11:35:00
7:55 AM,69.8,62.6,78,29.92,7.0,Calm,Calm,-,N/A,,Clear,0,2013-06-12 11:55:00
8:15 AM,69.8,62.6,78,29.90,7.0,Calm,Calm,-,N/A,,Clear,0,2013-06-12 12:15:00
8:35 AM,71.6,62.6,73,29.89,10.0,Calm,Calm,-,N/A,,Clear,0,2013-06-12 12:35:00
8:55 AM,71.6,62.6,73,29.90,10.0,Calm,Calm,-,N/A,,Clear,0,2013-06-12 12:55:00
9:15 AM,73.4,62.6,69,29.92,10.0,Calm,Calm,-,N/A,,Clear,0,2013-06-12 13:15:00
9:35 AM,73.4,60.8,65,29.93,10.0,Calm,Calm,-,N/A,,Clear,0,2013-06-12 13:35:00
9:55 AM,73.4,60.8,65,29.92,7.0,Calm,Calm,-,N/A,,Clear,0,2013-06-12 13:55:00
10:15 AM,73.4,60.8,65,29.92,10.0,SSE,4.6,-,N/A,,Clear,160,2013-06-12 14:15:00
10:35 AM,73.4,62.6,69,29.90,5.0,Calm,Calm,-,N/A,,Haze,0,2013-06-12 14:35:00
10:55 AM,73.4,62.6,69,29.91,10.0,South,3.5,-,N/A,,Light Drizzle,190,2013-06-12 14:55:00
11:15 AM,73.4,62.6,69,29.93,10.0,Calm,Calm,-,N/A,,Scattered Clouds,0,2013-06-12 15:15:00
11:35 AM,73.4,62.6,69,29.93,10.0,Calm,Calm,-,N/A,Rain,Light Rain,0,2013-06-12 15:35:00
11:55 AM,75.2,62.6,65,29.91,10.0,East,4.6,-,N/A,,Scattered Clouds,80,2013-06-12 15:55:00
12:15 PM,73.4,62.6,69,29.91,10.0,Calm,Calm,-,N/A,,Clear,0,2013-06-12 16:15:00
12:35 PM,77.0,62.6,61,29.91,10.0,Calm,Calm,-,N/A,,Clear,0,2013-06-12 16:35:00
12:55 PM,77.0,62.6,61,29.89,10.0,South,5.8,-,N/A,,Clear,190,2013-06-12 16:55:00
1:15 PM,78.8,62.6,57,29.86,10.0,SSE,9.2,-,N/A,,Clear,150,2013-06-12 17:15:00
1:35 PM,78.8,62.6,57,29.85,10.0,South,8.1,-,N/A,,Clear,180,2013-06-12 17:35:00
1:55 PM,78.8,62.6,57,29.84,10.0,SSE,8.1,-,N/A,,Clear,160,2013-06-12 17:55:00
2:15 PM,78.8,62.6,57,29.85,10.0,South,3.5,-,N/A,,Clear,190,2013-06-12 18:15:00
2:35 PM,80.6,62.6,54,29.87,10.0,West,4.6,-,N/A,,Clear,270,2013-06-12 18:35:00
2:55 PM,82.4,62.6,51,29.87,10.0,WSW,3.5,-,N/A,,Clear,250,2013-06-12 18:55:00
3:15 PM,80.6,62.6,54,29.85,10.0,WSW,4.6,-,N/A,,Clear,250,2013-06-12 19:15:00
3:35 PM,80.6,64.4,58,29.82,10.0,Calm,Calm,-,N/A,,Clear,0,2013-06-12 19:35:00
3:55 PM,80.6,64.4,58,29.83,7.0,SSW,3.5,-,N/A,,Clear,210,2013-06-12 19:55:00
4:15 PM,78.8,66.2,65,29.81,10.0,SE,3.5,-,N/A,,Clear,130,2013-06-12 20:15:00
4:35 PM,78.8,68.0,69,29.77,10.0,East,6.9,-,N/A,,Clear,80,2013-06-12 20:35:00
4:55 PM,77.0,66.2,69,29.80,10.0,ENE,4.6,-,N/A,Rain,Light Rain,60,2013-06-12 20:55:00
5:15 PM,75.2,66.2,73,29.81,10.0,NE,3.5,-,N/A,,Clear,40,2013-06-12 21:15:00
5:35 PM,73.4,66.2,78,29.83,7.0,NNE,5.8,-,N/A,Rain,Light Rain,30,2013-06-12 21:35:00
5:55 PM,75.2,66.2,73,29.83,7.0,ENE,5.8,-,N/A,,Scattered Clouds,70,2013-06-12 21:55:00
6:15 PM,75.2,66.2,73,29.81,7.0,ENE,5.8,-,N/A,,Scattered Clouds,60,2013-06-12 22:15:00
6:35 PM,73.4,64.4,73,29.80,7.0,East,4.6,-,N/A,,Scattered Clouds,80,2013-06-12 22:35:00
6:55 PM,75.2,64.4,69,29.78,7.0,ENE,6.9,-,N/A,,Scattered Clouds,70,2013-06-12 22:55:00
7:15 PM,73.4,64.4,73,29.77,7.0,ENE,6.9,-,N/A,,Clear,70,2013-06-12 23:15:00
7:35 PM,71.6,64.4,78,29.78,7.0,ENE,8.1,-,N/A,,Clear,60,2013-06-12 23:35:00
7:55 PM,69.8,62.6,78,29.78,5.0,East,5.8,-,N/A,,Haze,90,2013-06-12 23:55:00
8:15 PM,69.8,64.4,83,29.77,5.0,East,5.8,-,N/A,,Haze,90,2013-06-13 00:15:00
8:35 PM,69.8,64.4,83,29.75,5.0,East,5.8,-,N/A,,Haze,100,2013-06-13 00:35:00
8:55 PM,69.8,62.6,78,29.75,5.0,East,5.8,-,N/A,,Haze,90,2013-06-13 00:55:00
9:15 PM,69.8,62.6,78,29.75,7.0,East,5.8,-,N/A,,Scattered Clouds,90,2013-06-13 01:15:00
9:35 PM,68.0,62.6,83,29.74,5.0,ESE,5.8,-,N/A,,Haze,110,2013-06-13 01:35:00
9:55 PM,68.0,62.6,83,29.72,5.0,East,6.9,-,N/A,Rain,Light Rain,90,2013-06-13 01:55:00
10:15 PM,68.0,62.6,83,29.71,5.0,Calm,Calm,-,N/A,Rain,Light Rain,0,2013-06-13 02:15:00
10:35 PM,68.0,62.6,83,29.69,7.0,East,5.8,-,N/A,,Clear,80,2013-06-13 02:35:00
10:55 PM,69.8,62.6,78,29.68,7.0,East,5.8,-,N/A,,Clear,90,2013-06-13 02:55:00
11:15 PM,68.0,62.6,83,29.67,7.0,NE,5.8,-,N/A,,Clear,50,2013-06-13 03:15:00
11:35 PM,68.0,62.6,83,29.65,7.0,East,8.1,16.1,N/A,Rain,Light Rain,90,2013-06-13 03:35:00
11:55 PM,66.2,62.6,88,29.65,5.0,East,6.9,-,N/A,Rain,Light Rain,90,2013-06-13 03:55:00